Eastpoint, FL

7:07 AM EDT on September 19, 2014 (GMT -0400)
Panama City Tyndall AFB | Change Station
CLOSE
Current Station
Airport
Location: Panama City Tyndall AFB,
Elevation: 16 ft
Nearby Weather Stations

Elev 16 ft 30.07 °N, 85.58 °W | Updated 9 minutes ago

Clear
Clear
76 °F
Feels Like 76 °F
N
2
Wind Variable Wind from East

Today
High -- | Low -- °F
--% Chance of Precip.
Yesterday
High -- | Low -- °F
Precip. -- in
7:26 AM 7:39 PM
Waning Crescent, 20% visible
Pressure 29.94 in
Visibility 10.0 miles
Clouds Scattered Clouds 13000 ft
Dew Point 70 °F
Humidity 82%
Rainfall 0.00 in
Snow Depth Not available.
UV 0 out of 12
Pollen 8.80 out of 12
Air Quality Not available.
Flu Activity Not available.
METAR KPAM 191058Z AUTO 09002KT 10SM SCT130 25/21 A2993 RMK AO2 DZB1042E1051 SLP138 P0000 T02450213 $

More Conditions Fewer Conditions

Pressure 29.94 in
Visibility 10.0 miles
Clouds Scattered Clouds 13000 ft
Dew Point 70 °F
Humidity 82%
Rainfall 0.00 in
Snow Depth Not available.
UV 0 out of 12
Pollen 8.80 out of 12
Air Quality Not available.
Flu Activity Not available.
METAR KPAM 191058Z AUTO 09002KT 10SM SCT130 25/21 A2993 RMK AO2 DZB1042E1051 SLP138 P0000 T02450213 $

More Conditions Fewer Conditions

10-Day Weather Forecast

Almanac

Astronomy

Sep. 19, 2014 Rise Set
Actual Time 7:26 AM EDT 7:39 PM EDT
Civil Twilight 7:02 AM EDT 8:03 PM EDT
Nautical Twilight 6:34 AM EDT 8:31 PM EDT
Astronomical Twilight 6:06 AM EDT 8:59 PM EDT
Moon 3:25 AM EDT 4:55 PM EDT
Length of Visible Light 13h 01m
Length of Day
12h 13m
Tomorrow will be 1m 47s shorter.
Waning Crescent, 20% of the Moon is Illuminated
Today
Waning Crescent
Sep 24
New
Oct 1
First Quarter
Oct 8
Full
Oct 15
Last Quarter

Today's Extremes

State Highs State Lows

Community

WunderPhotos

Upload Photos

1,754,592 photos uploaded!

WunderBlogs® & News

Nearby

Snow Depth

Station Depth Elevation
No new snow has been reported.

Earthquake Activity

City Distance Mag. Time & Date
No recent earthquake activity has been reported nearby.
Minimum magnitude displayed is 2.5.

Coastal Water Temperatures

Place Temperature
Apalachicola, FL 86.0 °F
Panama City, FL 86.0 °F
Panama City Beach, FL 86.0 °F

Nearby Weather Stations